Time;durP1;ratioP1;P1;durP2;ratioP2;P2;SDS_P1;SDS_P2;PMS_P1;PMS_P2;Temp;Humidity;BMP_temperature;BMP_pressure;BME280_temperature;BME280_humidity;BME280_pressure;Samples;Min_cycle;Max_cycle;Signal;HPM_P1;HPM_P2
2023/06/30 00:01:36;;;;;;;7.03;6.33;;;;;;;;;;5075593;28;20972;-78
2023/06/30 00:04:06;;;;;;;10.43;6.80;;;;;;;;;;5075756;28;20564;-77
2023/06/30 00:06:39;;;;;;;7.83;6.93;;;;;;;;;;5076942;28;20560;-77
2023/06/30 00:09:07;;;;;;;7.93;7.13;;;;;;;;;;5076356;28;20507;-79
2023/06/30 00:11:34;;;;;;;6.97;6.30;;;;;;;;;;5073698;28;20461;-78
2023/06/30 00:14:02;;;;;;;6.90;6.27;;;;;;;;;;5071682;28;20557;-77
2023/06/30 00:16:31;;;;;;;9.87;6.70;;;;;;;;;;5072473;28;20505;-78
2023/06/30 00:18:59;;;;;;;7.50;6.80;;;;;;;;;;5072452;28;20923;-78
2023/06/30 00:21:27;;;;;;;7.80;6.47;;;;;;;;;;5072148;28;20455;-79
2023/06/30 00:24:01;;;;;;;7.97;6.63;;;;;;;;;;5072438;28;20465;-78
2023/06/30 00:26:29;;;;;;;8.27;6.60;;;;;;;;;;5072056;28;20478;-78
2023/06/30 00:28:56;;;;;;;8.80;6.53;;;;;;;;;;5072049;28;20460;-78
2023/06/30 00:31:24;;;;;;;10.40;7.00;;;;;;;;;;5072212;28;20513;-79
2023/06/30 00:33:53;;;;;;;7.43;6.73;;;;;;;;;;5073143;28;20605;-77
2023/06/30 00:36:25;;;;;;;8.60;7.00;;;;;;;;;;5073806;28;20552;-77
2023/06/30 00:38:54;;;;;;;7.67;6.90;;;;;;;;;;5075719;28;20452;-78
2023/06/30 00:41:22;;;;;;;7.57;6.60;;;;;;;;;;5074405;28;20744;-78
2023/06/30 00:43:50;;;;;;;8.30;6.37;;;;;;;;;;5073319;28;20795;-77
2023/06/30 00:46:18;;;;;;;8.67;7.13;;;;;;;;;;5075128;28;20601;-78
2023/06/30 00:48:49;;;;;;;8.03;7.07;;;;;;;;;;5076295;28;20444;-79
2023/06/30 00:51:19;;;;;;;10.10;7.93;;;;;;;;;;5076701;28;20440;-77
2023/06/30 00:53:50;;;;;;;8.03;6.67;;;;;;;;;;5076238;28;20496;-78
2023/06/30 00:56:20;;;;;;;11.30;7.20;;;;;;;;;;5079385;28;20426;-78
2023/06/30 00:58:48;;;;;;;7.33;6.83;;;;;;;;;;5081530;28;20452;-78
2023/06/30 01:01:20;;;;;;;8.60;7.37;;;;;;;;;;5079830;28;20466;-77
2023/06/30 01:03:49;;;;;;;7.57;6.97;;;;;;;;;;5081501;28;20442;-78
2023/06/30 01:06:22;;;;;;;10.57;8.47;;;;;;;;;;5079023;28;20482;-78
2023/06/30 01:08:56;;;;;;;8.53;7.63;;;;;;;;;;5079017;28;20481;-78
2023/06/30 01:11:25;;;;;;;8.10;7.30;;;;;;;;;;5080456;28;20472;-78
2023/06/30 01:13:55;;;;;;;9.47;7.03;;;;;;;;;;5081453;28;20476;-77
2023/06/30 01:16:26;;;;;;;7.83;7.10;;;;;;;;;;5085383;28;20869;-78
2023/06/30 01:18:58;;;;;;;7.60;7.00;;;;;;;;;;5081057;28;20529;-78
2023/06/30 01:21:28;;;;;;;8.10;7.40;;;;;;;;;;5082934;28;21040;-78
2023/06/30 01:24:02;;;;;;;8.47;7.67;;;;;;;;;;5084519;28;20473;-79
2023/06/30 01:26:34;;;;;;;10.57;7.40;;;;;;;;;;5076350;28;20460;-78
2023/06/30 01:29:03;;;;;;;7.70;6.97;;;;;;;;;;5076056;28;20448;-77
2023/06/30 01:31:31;;;;;;;9.27;7.57;;;;;;;;;;5076078;28;20492;-78
2023/06/30 01:34:02;;;;;;;8.30;7.50;;;;;;;;;;5075885;28;20481;-78
2023/06/30 01:36:30;;;;;;;7.80;7.10;;;;;;;;;;5077380;28;20451;-77
2023/06/30 01:38:59;;;;;;;9.00;7.90;;;;;;;;;;5084698;28;20476;-78
2023/06/30 01:41:26;;;;;;;8.10;7.20;;;;;;;;;;5076607;28;20883;-78
2023/06/30 01:43:54;;;;;;;7.70;7.00;;;;;;;;;;5084059;28;20521;-78
2023/06/30 01:46:22;;;;;;;7.70;7.10;;;;;;;;;;5084692;28;20540;-78
2023/06/30 01:48:50;;;;;;;8.70;7.97;;;;;;;;;;5075445;28;20567;-78
2023/06/30 01:51:20;;;;;;;9.40;7.73;;;;;;;;;;5075836;28;20456;-78
2023/06/30 01:53:50;;;;;;;8.03;7.33;;;;;;;;;;5075773;28;20444;-78
2023/06/30 01:56:23;;;;;;;8.50;7.60;;;;;;;;;;5075790;28;20437;-78
2023/06/30 01:58:51;;;;;;;9.43;7.80;;;;;;;;;;5077008;28;20457;-77
2023/06/30 02:01:22;;;;;;;7.97;7.23;;;;;;;;;;5087802;28;20456;-78
2023/06/30 02:03:51;;;;;;;7.53;6.93;;;;;;;;;;5079970;28;20472;-78
2023/06/30 02:06:19;;;;;;;8.40;7.67;;;;;;;;;;5078276;28;20474;-79
2023/06/30 02:08:49;;;;;;;9.53;8.10;;;;;;;;;;5079734;28;20479;-78
2023/06/30 02:11:16;;;;;;;8.00;7.40;;;;;;;;;;5079138;28;20429;-78
2023/06/30 02:13:45;;;;;;;9.90;7.43;;;;;;;;;;5077747;28;20538;-77
2023/06/30 02:16:13;;;;;;;9.00;7.90;;;;;;;;;;5078698;28;20437;-79
2023/06/30 02:18:41;;;;;;;11.67;7.73;;;;;;;;;;5080935;28;20469;-79
2023/06/30 02:21:09;;;;;;;7.57;6.97;;;;;;;;;;5080186;28;20472;-79
2023/06/30 02:23:36;;;;;;;7.93;7.10;;;;;;;;;;5078717;28;20473;-79
2023/06/30 02:26:08;;;;;;;8.10;7.30;;;;;;;;;;5078961;28;20537;-78
2023/06/30 02:28:36;;;;;;;8.60;7.17;;;;;;;;;;5078982;28;20465;-77
2023/06/30 02:31:05;;;;;;;7.93;6.77;;;;;;;;;;5079593;28;20456;-77
2023/06/30 02:33:36;;;;;;;9.37;7.97;;;;;;;;;;5079693;28;20562;-78
2023/06/30 02:36:04;;;;;;;7.87;7.10;;;;;;;;;;5080766;28;20456;-78
2023/06/30 02:38:31;;;;;;;9.00;8.00;;;;;;;;;;5081448;28;20442;-79
2023/06/30 02:41:02;;;;;;;7.63;6.90;;;;;;;;;;5081526;28;20528;-78
2023/06/30 02:43:30;;;;;;;8.43;7.70;;;;;;;;;;5080833;28;20877;-77
2023/06/30 02:45:57;;;;;;;7.50;6.90;;;;;;;;;;5080250;28;20460;-79
2023/06/30 02:48:26;;;;;;;8.43;7.60;;;;;;;;;;5080078;28;20487;-79
2023/06/30 02:50:54;;;;;;;9.03;7.40;;;;;;;;;;5079998;28;20536;-79
2023/06/30 02:53:22;;;;;;;7.80;7.03;;;;;;;;;;5079080;28;20459;-80
2023/06/30 02:55:49;;;;;;;7.73;7.13;;;;;;;;;;5079453;28;20455;-78
2023/06/30 02:58:20;;;;;;;8.27;7.47;;;;;;;;;;5085601;28;20546;-78
2023/06/30 03:00:55;;;;;;;8.83;8.03;;;;;;;;;;5078229;28;20837;-78
2023/06/30 03:03:27;;;;;;;7.83;7.13;;;;;;;;;;5083198;28;20477;-77
2023/06/30 03:05:58;;;;;;;8.50;7.70;;;;;;;;;;5088655;28;20453;-79
2023/06/30 03:08:26;;;;;;;7.50;6.90;;;;;;;;;;5079483;28;20457;-78
2023/06/30 03:10:54;;;;;;;7.70;7.00;;;;;;;;;;5078283;28;20459;-78
2023/06/30 03:13:22;;;;;;;7.67;6.97;;;;;;;;;;5076642;28;20477;-79
2023/06/30 03:15:50;;;;;;;7.47;6.80;;;;;;;;;;5077420;28;20985;-78
2023/06/30 03:18:18;;;;;;;8.50;7.27;;;;;;;;;;5075524;28;20448;-79
2023/06/30 03:20:46;;;;;;;8.40;7.70;;;;;;;;;;5085325;28;20448;-77
2023/06/30 03:23:16;;;;;;;7.97;7.27;;;;;;;;;;5074631;28;20473;-79
2023/06/30 03:25:44;;;;;;;11.33;7.03;;;;;;;;;;5074097;28;20975;-78
2023/06/30 03:28:14;;;;;;;8.67;7.80;;;;;;;;;;5074129;28;20477;-78
2023/06/30 03:30:42;;;;;;;7.60;6.90;;;;;;;;;;5073860;28;20473;-78
2023/06/30 03:33:10;;;;;;;8.57;7.87;;;;;;;;;;5076787;28;21005;-78
2023/06/30 03:35:38;;;;;;;9.00;7.40;;;;;;;;;;5077551;28;20453;-78
2023/06/30 03:38:17;;;;;;;7.90;7.20;;;;;;;;;;5078295;28;20441;-78
2023/06/30 03:40:55;;;;;;;7.87;7.13;;;;;;;;;;5078743;28;20455;-78
2023/06/30 03:43:23;;;;;;;10.20;9.37;;;;;;;;;;5078583;28;20491;-78
2023/06/30 03:45:51;;;;;;;9.67;8.57;;;;;;;;;;5076469;28;20449;-79
2023/06/30 03:48:23;;;;;;;9.17;8.37;;;;;;;;;;5076954;28;20855;-78
2023/06/30 03:51:05;;;;;;;8.33;7.53;;;;;;;;;;5076231;28;20512;-79
2023/06/30 03:53:32;;;;;;;8.73;7.93;;;;;;;;;;5076753;28;20455;-78
2023/06/30 03:56:01;;;;;;;9.13;8.27;;;;;;;;;;5076675;28;20449;-78
2023/06/30 03:58:31;;;;;;;8.90;8.10;;;;;;;;;;5075253;28;20460;-78
2023/06/30 04:00:58;;;;;;;9.07;8.17;;;;;;;;;;5076708;28;20456;-79
2023/06/30 04:03:25;;;;;;;8.00;7.20;;;;;;;;;;5073517;28;20558;-79
2023/06/30 04:05:53;;;;;;;7.47;6.87;;;;;;;;;;5075683;28;20532;-79
2023/06/30 04:08:20;;;;;;;11.00;8.77;;;;;;;;;;5077014;28;20514;-79
2023/06/30 04:10:48;;;;;;;8.93;8.23;;;;;;;;;;5090473;28;20436;-78
2023/06/30 04:13:16;;;;;;;9.13;7.50;;;;;;;;;;5085597;28;20484;-79
2023/06/30 04:15:44;;;;;;;8.03;7.43;;;;;;;;;;5088609;28;20486;-79
2023/06/30 04:18:11;;;;;;;8.10;7.40;;;;;;;;;;5085158;28;20437;-80
2023/06/30 04:20:38;;;;;;;7.33;6.80;;;;;;;;;;5077879;28;20429;-79
2023/06/30 04:23:06;;;;;;;7.10;6.50;;;;;;;;;;5081390;28;20494;-79
2023/06/30 04:25:34;;;;;;;8.00;6.87;;;;;;;;;;5076548;28;20445;-79
2023/06/30 04:28:01;;;;;;;8.30;7.60;;;;;;;;;;5075196;28;20518;-79
2023/06/30 04:30:31;;;;;;;7.40;6.67;;;;;;;;;;5072741;28;20536;-80
2023/06/30 04:32:58;;;;;;;7.40;6.63;;;;;;;;;;5072660;28;20569;-78
2023/06/30 04:35:26;;;;;;;7.90;7.13;;;;;;;;;;5075103;28;20498;-78
2023/06/30 04:37:56;;;;;;;7.47;6.83;;;;;;;;;;5076883;28;20445;-78
2023/06/30 04:40:24;;;;;;;7.17;6.57;;;;;;;;;;5075323;28;20532;-78
2023/06/30 04:42:51;;;;;;;7.30;6.70;;;;;;;;;;5074524;28;20634;-78
2023/06/30 04:45:19;;;;;;;6.47;5.97;;;;;;;;;;5075711;28;20572;-79
2023/06/30 04:47:48;;;;;;;7.10;6.60;;;;;;;;;;5080045;28;20559;-78
2023/06/30 04:50:16;;;;;;;9.30;7.17;;;;;;;;;;5080475;28;20471;-80
2023/06/30 04:52:44;;;;;;;8.60;7.50;;;;;;;;;;5078806;28;20488;-78
2023/06/30 04:55:12;;;;;;;7.90;7.40;;;;;;;;;;5074361;28;20484;-79
2023/06/30 04:57:42;;;;;;;8.33;7.60;;;;;;;;;;5073815;28;20464;-77
2023/06/30 05:00:10;;;;;;;10.13;7.10;;;;;;;;;;5073051;28;20560;-78
2023/06/30 05:02:38;;;;;;;7.83;7.23;;;;;;;;;;5084478;28;20558;-79
2023/06/30 05:05:07;;;;;;;7.70;7.00;;;;;;;;;;5090267;28;20426;-78
2023/06/30 05:07:35;;;;;;;7.80;7.17;;;;;;;;;;5090624;28;20504;-79
2023/06/30 05:10:03;;;;;;;8.20;7.17;;;;;;;;;;5090556;28;20456;-78
2023/06/30 05:12:30;;;;;;;7.67;6.80;;;;;;;;;;5091319;28;20485;-79
2023/06/30 05:14:57;;;;;;;7.47;6.90;;;;;;;;;;5092186;28;20512;-79
2023/06/30 05:17:24;;;;;;;7.97;7.33;;;;;;;;;;5090025;28;20453;-80
2023/06/30 05:19:51;;;;;;;7.57;6.97;;;;;;;;;;5090327;28;20466;-78
2023/06/30 05:22:20;;;;;;;7.80;7.00;;;;;;;;;;5091090;28;20437;-78
2023/06/30 05:24:47;;;;;;;7.47;6.87;;;;;;;;;;5091851;28;20441;-79
2023/06/30 05:27:15;;;;;;;8.97;8.23;;;;;;;;;;5080963;28;20468;-78
2023/06/30 05:29:42;;;;;;;15.80;8.73;;;;;;;;;;5083049;28;20472;-80
2023/06/30 05:32:10;;;;;;;9.50;8.70;;;;;;;;;;5090642;28;20449;-78
2023/06/30 05:34:37;;;;;;;10.60;9.50;;;;;;;;;;5075460;28;20516;-78
2023/06/30 05:37:05;;;;;;;10.43;9.53;;;;;;;;;;5072401;28;20449;-79
2023/06/30 05:39:34;;;;;;;9.97;9.23;;;;;;;;;;5072638;28;20441;-81
2023/06/30 05:42:08;;;;;;;11.90;10.90;;;;;;;;;;5077825;28;20452;-80
2023/06/30 05:44:36;;;;;;;14.57;13.37;;;;;;;;;;5076753;28;20453;-79
2023/06/30 05:47:03;;;;;;;11.50;10.60;;;;;;;;;;5075451;28;20461;-79
2023/06/30 05:49:31;;;;;;;12.10;11.00;;;;;;;;;;5075778;28;20476;-81
2023/06/30 05:51:59;;;;;;;12.97;11.87;;;;;;;;;;5074924;28;20514;-79
2023/06/30 05:54:27;;;;;;;13.07;11.87;;;;;;;;;;5075374;28;21039;-78
2023/06/30 05:56:55;;;;;;;13.57;12.00;;;;;;;;;;5075145;28;20476;-77
2023/06/30 05:59:23;;;;;;;12.60;11.30;;;;;;;;;;5079155;28;20451;-79
2023/06/30 06:01:51;;;;;;;13.53;11.57;;;;;;;;;;5081291;28;20479;-79
2023/06/30 06:04:18;;;;;;;12.83;11.73;;;;;;;;;;5080347;28;20445;-79
2023/06/30 06:06:48;;;;;;;12.27;11.20;;;;;;;;;;5079674;28;20449;-79
2023/06/30 06:09:15;;;;;;;14.37;13.03;;;;;;;;;;5081046;28;20502;-79
2023/06/30 06:11:43;;;;;;;13.30;11.60;;;;;;;;;;5081365;28;20472;-79
2023/06/30 06:14:12;;;;;;;14.03;12.73;;;;;;;;;;5079898;28;20477;-78
2023/06/30 06:16:44;;;;;;;13.33;11.93;;;;;;;;;;5079940;28;20498;-78
2023/06/30 06:19:17;;;;;;;13.40;12.10;;;;;;;;;;5083372;28;20559;-78
2023/06/30 06:21:44;;;;;;;13.10;11.80;;;;;;;;;;5082548;28;20441;-79
2023/06/30 06:24:17;;;;;;;13.67;12.33;;;;;;;;;;5082151;28;20465;-78
2023/06/30 06:27:00;;;;;;;13.17;12.07;;;;;;;;;;5083525;28;20453;-80
2023/06/30 06:29:32;;;;;;;13.23;12.10;;;;;;;;;;5079915;28;20506;-80
2023/06/30 06:32:00;;;;;;;13.63;12.43;;;;;;;;;;5082118;28;20472;-81
2023/06/30 06:34:38;;;;;;;12.90;11.73;;;;;;;;;;5081234;28;20457;-79
2023/06/30 06:37:06;;;;;;;12.93;11.77;;;;;;;;;;5080271;28;20832;-80
2023/06/30 06:39:34;;;;;;;14.83;13.40;;;;;;;;;;5077940;28;20445;-80
2023/06/30 06:42:02;;;;;;;14.50;13.20;;;;;;;;;;5076826;28;20455;-80
2023/06/30 06:44:36;;;;;;;17.93;12.60;;;;;;;;;;5076650;28;20965;-80
2023/06/30 06:47:22;;;;;;;13.10;12.00;;;;;;;;;;5077036;28;20480;-80
2023/06/30 06:49:50;;;;;;;15.23;13.63;;;;;;;;;;5076206;28;20476;-80
2023/06/30 06:52:22;;;;;;;13.93;12.60;;;;;;;;;;5076121;28;20448;-80
2023/06/30 06:54:52;;;;;;;13.60;12.53;;;;;;;;;;5075114;28;20441;-78
2023/06/30 06:57:20;;;;;;;13.93;12.77;;;;;;;;;;5074720;28;20429;-79
2023/06/30 06:59:49;;;;;;;14.60;13.40;;;;;;;;;;5074846;28;20927;-78
2023/06/30 07:02:17;;;;;;;15.80;14.40;;;;;;;;;;5075027;28;20480;-77
2023/06/30 07:04:45;;;;;;;15.30;13.80;;;;;;;;;;5074819;28;20449;-78
2023/06/30 07:07:13;;;;;;;15.03;13.73;;;;;;;;;;5077458;28;20449;-79
2023/06/30 07:09:45;;;;;;;16.03;14.07;;;;;;;;;;5077561;28;20473;-80
2023/06/30 07:12:12;;;;;;;15.50;13.30;;;;;;;;;;5078555;28;20484;-81
2023/06/30 07:14:41;;;;;;;15.50;14.10;;;;;;;;;;5077140;28;21242;-79
2023/06/30 07:17:11;;;;;;;15.70;14.40;;;;;;;;;;5075341;28;20449;-78
2023/06/30 07:19:55;;;;;;;15.50;14.10;;;;;;;;;;5076542;28;20822;-78
2023/06/30 07:22:23;;;;;;;15.23;13.83;;;;;;;;;;5075357;28;20828;-77
2023/06/30 07:24:52;;;;;;;14.60;13.40;;;;;;;;;;5075216;28;20452;-78
2023/06/30 07:27:20;;;;;;;15.43;13.73;;;;;;;;;;5075840;28;20466;-78
2023/06/30 07:29:56;;;;;;;16.00;14.50;;;;;;;;;;5075820;28;21022;-80
2023/06/30 07:32:32;;;;;;;16.00;14.60;;;;;;;;;;5074507;28;20953;-78
2023/06/30 07:35:04;;;;;;;15.87;14.30;;;;;;;;;;5075281;28;20499;-78
2023/06/30 07:37:33;;;;;;;16.10;14.77;;;;;;;;;;5075831;28;20453;-80
2023/06/30 07:40:00;;;;;;;15.53;13.80;;;;;;;;;;5075493;28;20464;-78
2023/06/30 07:42:31;;;;;;;16.37;14.07;;;;;;;;;;5075381;28;20476;-78
2023/06/30 07:45:13;;;;;;;14.97;13.67;;;;;;;;;;5075001;28;20479;-80
2023/06/30 07:47:52;;;;;;;14.73;13.33;;;;;;;;;;5075380;28;20483;-79
2023/06/30 07:50:25;;;;;;;15.50;14.00;;;;;;;;;;5074694;28;20473;-80
2023/06/30 07:52:53;;;;;;;14.77;13.40;;;;;;;;;;5073051;28;20491;-79
2023/06/30 07:55:34;;;;;;;;;;;;;;;;;;;;;
2023/06/30 07:58:06;;;;;;;17.60;15.80;;;;;;;;;;5095754;28;20420;-77
2023/06/30 08:00:34;;;;;;;19.60;15.67;;;;;;;;;;5102159;28;20774;-79
2023/06/30 08:03:07;;;;;;;16.73;15.17;;;;;;;;;;5090965;28;20473;-78
2023/06/30 08:05:41;;;;;;;17.33;15.60;;;;;;;;;;5083248;28;20460;-79
2023/06/30 08:08:08;;;;;;;17.07;15.37;;;;;;;;;;5053804;28;20455;-80
2023/06/30 08:10:36;;;;;;;17.47;15.77;;;;;;;;;;5055089;28;20559;-77
2023/06/30 08:13:04;;;;;;;17.20;15.40;;;;;;;;;;5053655;28;21041;-78
2023/06/30 08:15:31;;;;;;;18.87;15.57;;;;;;;;;;5054345;28;20906;-78
2023/06/30 08:17:59;;;;;;;17.27;15.47;;;;;;;;;;5055573;28;20451;-78
2023/06/30 08:20:27;;;;;;;17.07;15.27;;;;;;;;;;5057174;28;20493;-79
2023/06/30 08:22:55;;;;;;;18.53;15.40;;;;;;;;;;5081720;28;20445;-77
2023/06/30 08:25:24;;;;;;;18.00;15.33;;;;;;;;;;5082423;28;20440;-78
2023/06/30 08:27:51;;;;;;;19.20;16.87;;;;;;;;;;5082800;28;20504;-79
2023/06/30 08:30:23;;;;;;;18.60;16.80;;;;;;;;;;5082044;28;20472;-77
2023/06/30 08:32:50;;;;;;;19.53;17.40;;;;;;;;;;5081058;28;20476;-77
2023/06/30 08:35:19;;;;;;;20.97;17.00;;;;;;;;;;5081036;28;20491;-78
2023/06/30 08:37:48;;;;;;;18.67;16.60;;;;;;;;;;5077093;28;20535;-77
2023/06/30 08:40:20;;;;;;;18.17;16.30;;;;;;;;;;5078155;28;20444;-80
2023/06/30 08:42:50;;;;;;;20.93;17.70;;;;;;;;;;5076674;28;20495;-77
2023/06/30 08:45:18;;;;;;;19.83;17.70;;;;;;;;;;5075542;28;20456;-79
2023/06/30 08:47:46;;;;;;;18.53;16.60;;;;;;;;;;5075848;28;20468;-77
2023/06/30 08:50:15;;;;;;;18.77;16.77;;;;;;;;;;5075711;28;20498;-78
2023/06/30 08:52:43;;;;;;;21.80;17.03;;;;;;;;;;5075122;28;20468;-77
2023/06/30 08:55:13;;;;;;;21.10;17.07;;;;;;;;;;5074553;28;20826;-79
2023/06/30 08:57:43;;;;;;;20.23;17.77;;;;;;;;;;5073221;28;20474;-77
2023/06/30 09:00:11;;;;;;;19.70;16.90;;;;;;;;;;5080222;28;20444;-79
2023/06/30 09:02:43;;;;;;;20.07;17.87;;;;;;;;;;5092719;28;20468;-78
2023/06/30 09:05:15;;;;;;;20.07;17.90;;;;;;;;;;5088957;28;20448;-77
2023/06/30 09:07:47;;;;;;;19.90;18.00;;;;;;;;;;5084839;28;20526;-76
2023/06/30 09:10:16;;;;;;;19.47;17.40;;;;;;;;;;5077315;28;20510;-77
2023/06/30 09:12:46;;;;;;;20.37;17.77;;;;;;;;;;5078536;28;20479;-77
2023/06/30 09:15:15;;;;;;;18.70;16.80;;;;;;;;;;5077170;28;20464;-77
2023/06/30 09:17:46;;;;;;;20.37;18.27;;;;;;;;;;5078640;28;20991;-79
2023/06/30 09:20:14;;;;;;;20.80;18.07;;;;;;;;;;5079306;28;20443;-79
2023/06/30 09:22:42;;;;;;;18.07;16.20;;;;;;;;;;5079107;28;20480;-78
2023/06/30 09:25:35;;;;;;;19.37;17.37;;;;;;;;;;5080248;28;20555;-79
2023/06/30 09:28:20;;;;;;;20.00;15.90;;;;;;;;;;5080270;28;20476;-79
2023/06/30 09:30:52;;;;;;;18.87;16.90;;;;;;;;;;5080679;28;20899;-79
2023/06/30 09:33:25;;;;;;;18.70;16.67;;;;;;;;;;5081001;28;20473;-80
2023/06/30 09:35:53;;;;;;;19.63;17.73;;;;;;;;;;5079815;28;20459;-79
2023/06/30 09:38:21;;;;;;;20.00;16.80;;;;;;;;;;5081727;28;20448;-80
2023/06/30 09:40:55;;;;;;;18.07;16.37;;;;;;;;;;5081574;28;20439;-80
2023/06/30 09:43:43;;;;;;;18.70;16.57;;;;;;;;;;5079727;28;20468;-81
2023/06/30 09:46:13;;;;;;;19.53;17.03;;;;;;;;;;5079254;28;20450;-80
2023/06/30 09:48:43;;;;;;;19.27;17.27;;;;;;;;;;5079531;28;20444;-79
2023/06/30 09:51:19;;;;;;;19.60;17.70;;;;;;;;;;5078621;28;20504;-79
2023/06/30 09:53:47;;;;;;;19.77;17.57;;;;;;;;;;5078019;28;20622;-80
2023/06/30 09:56:23;;;;;;;21.40;18.23;;;;;;;;;;5080831;28;20455;-82
2023/06/30 09:59:12;;;;;;;20.27;18.17;;;;;;;;;;5080437;28;20452;-80
2023/06/30 10:01:41;;;;;;;19.03;17.20;;;;;;;;;;5082345;28;20472;-79
2023/06/30 10:04:10;;;;;;;18.73;16.93;;;;;;;;;;5077314;28;21100;-78
2023/06/30 10:06:42;;;;;;;19.97;17.97;;;;;;;;;;5081023;28;20452;-78
2023/06/30 10:09:10;;;;;;;19.27;17.20;;;;;;;;;;5076400;28;20460;-77
2023/06/30 10:11:38;;;;;;;18.50;16.80;;;;;;;;;;5080794;28;20476;-77
2023/06/30 10:14:08;;;;;;;18.00;16.27;;;;;;;;;;5087899;28;20959;-79
2023/06/30 10:16:39;;;;;;;18.83;17.00;;;;;;;;;;5082892;28;20441;-78
2023/06/30 10:19:10;;;;;;;17.17;15.47;;;;;;;;;;5078159;28;20463;-78
2023/06/30 10:21:44;;;;;;;17.40;15.70;;;;;;;;;;5080257;28;20445;-78
2023/06/30 10:24:12;;;;;;;18.07;16.27;;;;;;;;;;5079831;28;20594;-77
2023/06/30 10:26:41;;;;;;;17.93;16.03;;;;;;;;;;5081527;28;20874;-77
2023/06/30 10:29:14;;;;;;;17.90;15.97;;;;;;;;;;5076481;28;20930;-78
2023/06/30 10:31:45;;;;;;;18.57;16.67;;;;;;;;;;5076748;28;20464;-79
2023/06/30 10:34:14;;;;;;;18.20;16.33;;;;;;;;;;5081589;28;20460;-78
2023/06/30 10:36:46;;;;;;;19.90;17.37;;;;;;;;;;5086025;28;20933;-79
2023/06/30 10:39:15;;;;;;;18.07;16.23;;;;;;;;;;5080133;28;20861;-78
2023/06/30 10:41:47;;;;;;;18.77;17.10;;;;;;;;;;5079365;28;20456;-77
2023/06/30 10:44:20;;;;;;;19.80;18.00;;;;;;;;;;5078258;28;21045;-77
2023/06/30 10:46:53;;;;;;;20.33;18.33;;;;;;;;;;5078978;28;20499;-78
2023/06/30 10:49:23;;;;;;;19.93;17.90;;;;;;;;;;5076848;28;20460;-79
2023/06/30 10:51:51;;;;;;;19.73;17.73;;;;;;;;;;5076262;28;20465;-78
2023/06/30 10:54:23;;;;;;;21.17;19.00;;;;;;;;;;5076505;28;20552;-77
2023/06/30 10:56:52;;;;;;;23.33;20.80;;;;;;;;;;5076093;28;20440;-77
2023/06/30 10:59:33;;;;;;;22.70;20.40;;;;;;;;;;5075702;28;20483;-78
2023/06/30 11:02:18;;;;;;;22.53;20.13;;;;;;;;;;5076245;28;20946;-80
2023/06/30 11:04:54;;;;;;;24.50;22.20;;;;;;;;;;5076624;28;20816;-77
2023/06/30 11:07:29;;;;;;;25.90;23.23;;;;;;;;;;5076466;28;20444;-78
2023/06/30 11:10:01;;;;;;;28.47;24.50;;;;;;;;;;5076126;28;20472;-78
2023/06/30 11:12:30;;;;;;;25.00;22.50;;;;;;;;;;5076730;28;20464;-78
2023/06/30 11:15:03;;;;;;;29.70;26.77;;;;;;;;;;5076065;28;20516;-78
2023/06/30 11:17:59;;;;;;;27.63;24.83;;;;;;;;;;5076071;28;21041;-78
2023/06/30 11:20:27;;;;;;;26.40;23.57;;;;;;;;;;5078508;28;20505;-77
2023/06/30 11:23:02;;;;;;;26.73;23.80;;;;;;;;;;5076752;28;20530;-79
2023/06/30 11:25:30;;;;;;;30.07;25.43;;;;;;;;;;5076231;28;20476;-77
2023/06/30 11:27:57;;;;;;;28.40;25.43;;;;;;;;;;5079580;28;20459;-76
2023/06/30 11:30:27;;;;;;;27.60;25.00;;;;;;;;;;5081193;28;20483;-75
2023/06/30 11:32:58;;;;;;;27.50;24.60;;;;;;;;;;5079275;28;20460;-77
2023/06/30 11:35:28;;;;;;;28.30;25.50;;;;;;;;;;5076841;28;20453;-79
2023/06/30 11:38:04;;;;;;;29.10;26.00;;;;;;;;;;5075636;28;20475;-78
2023/06/30 11:40:32;;;;;;;27.80;24.87;;;;;;;;;;5074299;28;20491;-78
2023/06/30 11:43:02;;;;;;;28.17;25.00;;;;;;;;;;5074197;28;20582;-78
2023/06/30 11:45:32;;;;;;;30.90;26.80;;;;;;;;;;5074664;28;20457;-78
2023/06/30 11:48:00;;;;;;;31.03;27.73;;;;;;;;;;5075443;28;20456;-76
2023/06/30 11:50:30;;;;;;;28.30;25.40;;;;;;;;;;5074931;28;20761;-77
2023/06/30 11:52:58;;;;;;;29.70;26.70;;;;;;;;;;5076899;28;20529;-77
2023/06/30 11:55:27;;;;;;;30.27;26.57;;;;;;;;;;5075158;28;20460;-77
2023/06/30 11:57:55;;;;;;;29.13;26.00;;;;;;;;;;5075283;28;20455;-77
2023/06/30 12:00:29;;;;;;;28.63;25.60;;;;;;;;;;5074472;28;20449;-77
2023/06/30 12:03:04;;;;;;;28.37;25.53;;;;;;;;;;5076381;28;20471;-76
2023/06/30 12:05:31;;;;;;;28.77;25.97;;;;;;;;;;5074645;28;20805;-76
2023/06/30 12:07:59;;;;;;;29.63;26.60;;;;;;;;;;5076229;28;20510;-78
2023/06/30 12:10:37;;;;;;;28.17;25.17;;;;;;;;;;5076462;28;20469;-77
2023/06/30 12:13:07;;;;;;;27.57;24.77;;;;;;;;;;5077774;28;20783;-77
2023/06/30 12:15:35;;;;;;;30.37;25.30;;;;;;;;;;5083936;28;20444;-80
2023/06/30 12:18:05;;;;;;;26.43;23.80;;;;;;;;;;5086298;28;20445;-78
2023/06/30 12:20:34;;;;;;;27.53;24.53;;;;;;;;;;5088830;28;20441;-77
2023/06/30 12:23:01;;;;;;;27.50;23.53;;;;;;;;;;5087385;28;20720;-78
2023/06/30 12:25:31;;;;;;;27.70;24.83;;;;;;;;;;5088090;28;20460;-79
2023/06/30 12:27:58;;;;;;;27.70;24.70;;;;;;;;;;5086666;28;20453;-78
2023/06/30 12:30:32;;;;;;;29.33;26.10;;;;;;;;;;5088905;28;20465;-80
2023/06/30 12:32:59;;;;;;;27.10;24.30;;;;;;;;;;5086340;28;20505;-78
2023/06/30 12:35:32;;;;;;;26.60;23.90;;;;;;;;;;5086658;28;20453;-77
2023/06/30 12:38:00;;;;;;;28.20;25.10;;;;;;;;;;5086102;28;20476;-76
2023/06/30 12:40:30;;;;;;;28.80;24.53;;;;;;;;;;5087128;28;20934;-77
2023/06/30 12:43:01;;;;;;;27.83;24.80;;;;;;;;;;5085336;28;20457;-78
2023/06/30 12:45:31;;;;;;;27.70;24.90;;;;;;;;;;5082842;28;20532;-77
2023/06/30 12:48:04;;;;;;;27.73;24.77;;;;;;;;;;5083685;28;20453;-75
2023/06/30 12:50:36;;;;;;;25.40;22.80;;;;;;;;;;5082522;28;20488;-77
2023/06/30 12:53:07;;;;;;;29.80;24.37;;;;;;;;;;5082214;28;20500;-77
2023/06/30 12:55:38;;;;;;;28.73;25.73;;;;;;;;;;5083195;28;20476;-77
2023/06/30 12:58:11;;;;;;;28.30;24.80;;;;;;;;;;5083198;28;20529;-77
2023/06/30 13:00:47;;;;;;;27.97;25.10;;;;;;;;;;5084708;28;20459;-76
2023/06/30 13:03:15;;;;;;;27.10;24.40;;;;;;;;;;5082837;28;20555;-77
2023/06/30 13:05:46;;;;;;;26.70;24.03;;;;;;;;;;5078722;28;20829;-76
2023/06/30 13:08:14;;;;;;;26.40;22.83;;;;;;;;;;5077853;28;20449;-79
2023/06/30 13:10:42;;;;;;;28.13;25.20;;;;;;;;;;5076903;28;20481;-75
2023/06/30 13:13:10;;;;;;;25.80;23.20;;;;;;;;;;5077627;28;20473;-79
2023/06/30 13:15:37;;;;;;;26.80;23.93;;;;;;;;;;5079573;28;20472;-78
2023/06/30 13:18:04;;;;;;;26.33;23.50;;;;;;;;;;5085863;28;20461;-75
2023/06/30 13:20:32;;;;;;;27.63;24.73;;;;;;;;;;5087733;28;20445;-76
2023/06/30 13:23:02;;;;;;;25.30;22.70;;;;;;;;;;5086950;28;20492;-77
2023/06/30 13:25:29;;;;;;;27.37;24.67;;;;;;;;;;5087996;28;20512;-77
2023/06/30 13:27:56;;;;;;;27.10;24.30;;;;;;;;;;5088314;28;20445;-77
2023/06/30 13:30:24;;;;;;;25.13;22.53;;;;;;;;;;5088570;28;20486;-76
2023/06/30 13:32:51;;;;;;;26.93;24.13;;;;;;;;;;5087995;28;21052;-77
2023/06/30 13:35:19;;;;;;;24.23;21.73;;;;;;;;;;5084921;28;20514;-76
2023/06/30 13:37:48;;;;;;;25.90;23.20;;;;;;;;;;5076590;28;20463;-77
2023/06/30 13:40:17;;;;;;;26.67;23.87;;;;;;;;;;5077049;28;20462;-77
2023/06/30 13:42:44;;;;;;;25.67;22.97;;;;;;;;;;5076005;28;20910;-77
2023/06/30 13:45:12;;;;;;;26.70;23.30;;;;;;;;;;5077048;28;20449;-77
2023/06/30 13:47:39;;;;;;;25.17;22.67;;;;;;;;;;5079705;28;20451;-74
2023/06/30 13:50:07;;;;;;;25.97;23.40;;;;;;;;;;5083046;28;20496;-76
2023/06/30 13:52:35;;;;;;;26.07;23.37;;;;;;;;;;5082749;28;20455;-76
2023/06/30 13:55:03;;;;;;;24.27;21.77;;;;;;;;;;5082080;28;20433;-76
2023/06/30 13:57:34;;;;;;;23.83;21.37;;;;;;;;;;5088665;28;20538;-77
2023/06/30 14:00:04;;;;;;;23.87;21.47;;;;;;;;;;5086317;28;20432;-76
2023/06/30 14:02:32;;;;;;;24.30;21.90;;;;;;;;;;5087094;28;20460;-77
2023/06/30 14:05:00;;;;;;;24.33;21.53;;;;;;;;;;5090116;28;20449;-78
2023/06/30 14:07:27;;;;;;;23.13;20.40;;;;;;;;;;5087141;28;20510;-76
2023/06/30 14:09:58;;;;;;;24.93;22.53;;;;;;;;;;5085928;28;20441;-78
2023/06/30 14:12:25;;;;;;;24.67;22.17;;;;;;;;;;5082178;28;20555;-78
2023/06/30 14:14:57;;;;;;;24.67;22.27;;;;;;;;;;5080244;28;20451;-77
2023/06/30 14:17:27;;;;;;;24.90;22.30;;;;;;;;;;5079070;28;20460;-78
2023/06/30 14:19:55;;;;;;;25.53;22.83;;;;;;;;;;5079252;28;20514;-76
2023/06/30 14:22:22;;;;;;;25.13;22.57;;;;;;;;;;5079528;28;20541;-76
2023/06/30 14:24:49;;;;;;;25.13;22.43;;;;;;;;;;5079366;28;20587;-78
2023/06/30 14:27:17;;;;;;;23.73;21.23;;;;;;;;;;5081261;28;20450;-76
2023/06/30 14:29:44;;;;;;;24.30;21.90;;;;;;;;;;5077161;28;20470;-76
2023/06/30 14:32:13;;;;;;;24.70;22.10;;;;;;;;;;5075475;28;20542;-77
2023/06/30 14:34:44;;;;;;;24.70;22.40;;;;;;;;;;5075632;28;20485;-75
2023/06/30 14:37:12;;;;;;;28.00;24.20;;;;;;;;;;5077761;28;20446;-78
2023/06/30 14:39:41;;;;;;;26.50;23.87;;;;;;;;;;5076069;28;20544;-76
2023/06/30 14:42:14;;;;;;;28.07;25.20;;;;;;;;;;5077722;28;20440;-77
2023/06/30 14:44:43;;;;;;;27.27;23.50;;;;;;;;;;5076845;28;20442;-77